Archival Weather

Norman Y Mineta San Jose Intl

San Jose, California (KSJC)

Report from: Saturday, February 3, 2024 2:53 PM PST
Current time: Friday, June 14, 2024 6:31 AM PDT

Current weather – Weather history – Daily summaries
Weather forecast

Temperature13.9°C (57.0°F)
Dew point3.3°C (37.9°F)
Winds 10 kts (5.1 m/s, 11.5 mph) South-Southeast (150°)
Visibility10 mi. (16.1 km)
Clouds Few clouds 2,600 ft. (792 m)
Ceiling: Broken clouds 8,500 ft. (2,591 m)
Overcast 12,000 ft. (3,658 m)
Altimeter29.92 in.Hg (1013 mB)
Relative humidity49 %
Density altitude-10 ft. (-3 m)
Sea-level pressure101.3 kPa (1013 mB, 29.92 in.Hg)
Remarks Automated weather observing station with precipitation discriminator
Flight conditions Visual Meteorological Conditions
Raw dataKSJC 032253Z 15010KT 10SM FEW026 BKN085 OVC120 14/03 A2992 RMK AO2 SLP131 T01390033
An error has occurred. This application may no longer respond until reloaded. Reload 🗙